Time;durP1;ratioP1;P1;durP2;ratioP2;P2;SDS_P1;SDS_P2;PMS_P1;PMS_P2;Temp;Humidity;BMP_temperature;BMP_pressure;BME280_temperature;BME280_humidity;BME280_pressure;Samples;Min_cycle;Max_cycle;Signal;HPM_P1;HPM_P2
2022/04/17 00:02:12;;;;;;;13.32;7.97;;;3.80;99.90;;;;;;7309502;32;20115;-60
2022/04/17 00:06:14;;;;;;;16.12;9.27;;;3.70;99.90;;;;;;7317577;32;20226;-62
2022/04/17 00:10:16;;;;;;;14.85;8.32;;;3.60;99.90;;;;;;7316701;32;20388;-60
2022/04/17 00:14:18;;;;;;;13.82;8.98;;;3.60;99.90;;;;;;7317092;32;20914;-59
2022/04/17 00:18:20;;;;;;;16.17;8.65;;;3.50;99.90;;;;;;7315850;32;20119;-59
2022/04/17 00:22:23;;;;;;;13.98;7.53;;;3.50;99.90;;;;;;7313387;32;20203;-61
2022/04/17 00:26:24;;;;;;;14.60;7.35;;;3.40;99.90;;;;;;7316109;32;20227;-61
2022/04/17 00:30:26;;;;;;;12.48;6.62;;;3.40;99.90;;;;;;7315523;32;20178;-59
2022/04/17 00:34:29;;;;;;;15.48;8.90;;;3.40;99.90;;;;;;7317203;32;20134;-60
2022/04/17 00:38:31;;;;;;;13.77;9.40;;;3.30;99.90;;;;;;7316983;32;20264;-59
2022/04/17 00:42:33;;;;;;;12.37;7.90;;;3.20;99.90;;;;;;7316246;32;20248;-59
2022/04/17 00:46:35;;;;;;;11.00;7.22;;;3.10;99.90;;;;;;7315815;32;20108;-58
2022/04/17 00:50:37;;;;;;;14.50;8.48;;;3.00;99.90;;;;;;7315081;32;20426;-59
2022/04/17 00:54:46;;;;;;;10.55;6.87;;;2.90;99.90;;;;;;7317529;32;20199;-59
2022/04/17 00:58:48;;;;;;;11.40;7.00;;;2.90;99.90;;;;;;7314387;32;20738;-58
2022/04/17 01:02:50;;;;;;;10.73;6.57;;;2.80;99.90;;;;;;7320434;32;20222;-59
2022/04/17 01:06:52;;;;;;;12.05;6.72;;;2.80;99.90;;;;;;7320753;32;20662;-59
2022/04/17 01:10:53;;;;;;;11.32;6.78;;;2.80;99.90;;;;;;7320652;32;20131;-58
2022/04/17 01:14:55;;;;;;;9.75;6.05;;;2.80;99.90;;;;;;7321671;32;20138;-59
2022/04/17 01:19:11;;;;;;;10.13;6.70;;;2.70;99.90;;;;;;7320251;32;20130;-59
2022/04/17 01:27:34;;;;;;;10.95;6.37;;;2.70;99.90;;;;;;7319270;32;20195;-59
2022/04/17 01:31:36;;;;;;;12.18;6.25;;;2.70;99.90;;;;;;7317739;32;20111;-60
2022/04/17 01:35:38;;;;;;;8.57;5.62;;;2.70;99.90;;;;;;7315416;32;20192;-59
2022/04/17 01:39:40;;;;;;;9.35;5.68;;;2.70;99.90;;;;;;7319296;32;20137;-60
2022/04/17 01:43:41;;;;;;;9.02;6.10;;;2.60;99.90;;;;;;7314276;32;20138;-60
2022/04/17 01:47:43;;;;;;;8.15;4.82;;;2.60;99.90;;;;;;7317841;32;20110;-60
2022/04/17 01:51:47;;;;;;;6.82;4.82;;;2.70;99.90;;;;;;7313807;32;20169;-60
2022/04/17 01:55:48;;;;;;;7.47;4.47;;;2.80;99.90;;;;;;7317251;32;20241;-60
2022/04/17 01:59:50;;;;;;;9.90;4.95;;;2.90;99.90;;;;;;7318158;32;20222;-58
2022/04/17 02:03:51;;;;;;;8.68;5.15;;;3.10;99.90;;;;;;7314402;32;20119;-59
2022/04/17 02:07:53;;;;;;;5.05;4.12;;;3.10;99.90;;;;;;7326865;32;20154;-59
2022/04/17 02:11:55;;;;;;;8.13;4.47;;;3.20;99.90;;;;;;7309680;32;20115;-59
2022/04/17 02:15:56;;;;;;;6.07;3.53;;;3.40;99.90;;;;;;7316570;32;20171;-58
2022/04/17 02:19:58;;;;;;;5.87;3.50;;;3.50;99.90;;;;;;7316407;32;20323;-61
2022/04/17 02:24:00;;;;;;;8.20;3.80;;;3.70;99.90;;;;;;7314943;32;20107;-58
2022/04/17 02:28:03;;;;;;;7.40;3.33;;;3.90;99.90;;;;;;7317679;32;20568;-59
2022/04/17 02:32:05;;;;;;;4.15;2.87;;;4.10;99.90;;;;;;7314462;32;20111;-59
2022/04/17 02:36:07;;;;;;;4.03;3.40;;;4.30;99.90;;;;;;7317349;32;20544;-59
2022/04/17 02:40:09;;;;;;;5.25;3.35;;;4.50;99.90;;;;;;7311262;32;20202;-59
2022/04/17 02:44:10;;;;;;;4.37;2.30;;;4.70;99.90;;;;;;7318311;32;20130;-60
2022/04/17 02:48:12;;;;;;;4.47;2.72;;;5.00;99.90;;;;;;7313338;32;20793;-59
2022/04/17 02:52:14;;;;;;;4.93;2.65;;;5.30;99.90;;;;;;7313567;32;20606;-59
2022/04/17 02:56:16;;;;;;;4.05;2.67;;;5.40;99.90;;;;;;7318346;32;20107;-58
2022/04/17 03:00:18;;;;;;;4.43;2.40;;;5.50;99.90;;;;;;7318613;32;20495;-59
2022/04/17 03:08:41;;;;;;;4.22;2.78;;;5.60;99.90;;;;;;7317355;32;20115;-59
2022/04/17 03:12:43;;;;;;;3.62;2.30;;;5.70;99.90;;;;;;7315791;32;20122;-60
2022/04/17 03:16:45;;;;;;;4.95;2.53;;;5.70;99.90;;;;;;7317928;32;20134;-59
2022/04/17 03:20:47;;;;;;;3.92;2.20;;;5.70;99.90;;;;;;7318001;32;20138;-60
2022/04/17 03:24:48;;;;;;;4.95;2.40;;;5.70;99.90;;;;;;7317307;32;20576;-60
2022/04/17 03:28:54;;;;;;;5.50;2.50;;;5.70;99.90;;;;;;7319311;32;20166;-61
2022/04/17 03:32:57;;;;;;;3.78;2.17;;;5.80;99.90;;;;;;7317207;32;20163;-61
2022/04/17 03:36:59;;;;;;;3.55;2.15;;;5.80;99.90;;;;;;7317490;32;20237;-60
2022/04/17 03:41:00;;;;;;;3.25;1.95;;;5.80;99.90;;;;;;7315700;32;20296;-60
2022/04/17 03:45:05;;;;;;;4.95;2.25;;;5.90;99.90;;;;;;7311552;32;20973;-61
2022/04/17 03:49:07;;;;;;;5.18;2.05;;;5.90;99.90;;;;;;7313729;32;20567;-61
2022/04/17 03:53:09;;;;;;;3.37;1.83;;;5.90;99.90;;;;;;7317487;32;20116;-60
2022/04/17 03:57:11;;;;;;;5.35;2.47;;;5.90;99.90;;;;;;7316339;32;20529;-61
2022/04/17 04:01:13;;;;;;;3.53;2.30;;;5.90;99.90;;;;;;7315776;32;20110;-61
2022/04/17 04:05:14;;;;;;;4.12;1.98;;;5.90;99.90;;;;;;7315842;32;20172;-61
2022/04/17 04:09:16;;;;;;;3.05;2.45;;;5.90;99.90;;;;;;7318662;32;20512;-61
2022/04/17 04:13:19;;;;;;;3.55;2.12;;;5.90;99.90;;;;;;7316375;32;20440;-60
2022/04/17 04:17:20;;;;;;;4.60;2.17;;;5.80;99.90;;;;;;7314705;32;20637;-60
2022/04/17 04:21:22;;;;;;;3.42;2.10;;;5.70;99.90;;;;;;7316122;32;20185;-61
2022/04/17 04:25:24;;;;;;;2.72;1.87;;;5.70;99.90;;;;;;7313551;32;20213;-61
2022/04/17 04:29:25;;;;;;;4.32;2.17;;;5.70;99.90;;;;;;7312540;32;20483;-61
2022/04/17 04:33:27;;;;;;;5.47;2.37;;;5.70;99.90;;;;;;7317435;32;20122;-60
2022/04/17 04:37:28;;;;;;;3.42;1.98;;;5.70;99.90;;;;;;7320773;32;20229;-61
2022/04/17 04:41:30;;;;;;;4.15;1.95;;;5.80;99.90;;;;;;7320859;32;20111;-60
2022/04/17 04:49:52;;;;;;;5.80;2.08;;;5.80;99.90;;;;;;7313953;32;20138;-61
2022/04/17 04:53:56;;;;;;;2.78;1.67;;;5.80;99.90;;;;;;7314608;32;20138;-60
2022/04/17 04:58:01;;;;;;;3.00;1.60;;;5.80;99.90;;;;;;7316705;32;20111;-60
2022/04/17 05:02:02;;;;;;;2.85;1.50;;;5.80;99.90;;;;;;7318949;32;20225;-60
2022/04/17 05:06:04;;;;;;;3.00;1.70;;;5.80;99.90;;;;;;7319464;32;20131;-62
2022/04/17 05:10:07;;;;;;;4.28;1.75;;;5.80;99.90;;;;;;7318779;32;20147;-60
2022/04/17 05:14:11;;;;;;;3.83;1.60;;;5.80;99.90;;;;;;7317148;32;20562;-60
2022/04/17 05:18:13;;;;;;;3.15;1.55;;;5.80;99.90;;;;;;7318308;32;20111;-61
2022/04/17 05:22:20;;;;;;;4.22;1.80;;;6.00;99.90;;;;;;7318283;32;20130;-61
2022/04/17 05:26:23;;;;;;;3.77;1.50;;;6.00;99.90;;;;;;7320129;32;20103;-60
2022/04/17 05:30:25;;;;;;;2.42;1.40;;;6.00;99.90;;;;;;7319720;32;20203;-61
2022/04/17 05:34:27;;;;;;;2.65;1.48;;;6.20;99.90;;;;;;7318861;32;20232;-62
2022/04/17 05:38:29;;;;;;;3.30;1.73;;;6.20;99.90;;;;;;7311824;32;20338;-62
2022/04/17 05:42:31;;;;;;;4.07;1.58;;;6.10;99.90;;;;;;7319519;32;20145;-60
2022/04/17 05:46:36;;;;;;;2.78;1.40;;;6.20;99.90;;;;;;7316939;32;20921;-61
2022/04/17 05:50:38;;;;;;;3.20;1.70;;;6.40;99.90;;;;;;7322650;32;20664;-61
2022/04/17 05:54:43;;;;;;;3.35;1.35;;;6.40;99.90;;;;;;7319024;32;20123;-61
2022/04/17 05:58:45;;;;;;;3.65;1.70;;;6.60;99.90;;;;;;7318106;32;20111;-61
2022/04/17 06:02:47;;;;;;;2.70;1.42;;;6.70;99.90;;;;;;7315435;32;20226;-60
2022/04/17 06:06:48;;;;;;;4.35;1.80;;;6.70;99.90;;;;;;7320268;32;20250;-60
2022/04/17 06:10:50;;;;;;;2.37;1.52;;;6.80;99.90;;;;;;7317775;32;20849;-60
2022/04/17 06:14:52;;;;;;;4.07;1.50;;;7.00;99.90;;;;;;7321567;32;20213;-60
2022/04/17 06:18:54;;;;;;;3.50;1.40;;;7.20;99.90;;;;;;7319449;32;20672;-62
2022/04/17 06:22:55;;;;;;;3.17;1.50;;;7.20;99.90;;;;;;7319434;32;20141;-61
2022/04/17 06:26:57;;;;;;;2.97;1.50;;;7.40;99.90;;;;;;7317971;32;20129;-60
2022/04/17 06:30:59;;;;;;;2.42;1.35;;;7.50;99.90;;;;;;7319583;32;20613;-61
2022/04/17 06:35:00;;;;;;;3.80;1.42;;;7.60;99.90;;;;;;7314506;32;20173;-61
2022/04/17 06:39:21;;;;;;;3.12;1.40;;;7.70;99.90;;;;;;7307396;32;20122;-57
2022/04/17 06:43:43;;;;;;;2.30;1.27;;;7.90;99.90;;;;;;7308528;32;20122;-58
2022/04/17 06:48:18;;;;;;;3.12;1.23;;;8.00;99.90;;;;;;7303202;32;20195;-56
2022/04/17 06:52:40;;;;;;;1.95;1.20;;;8.20;99.90;;;;;;7311733;32;20321;-55
2022/04/17 06:57:05;;;;;;;2.65;0.90;;;8.40;99.90;;;;;;7308755;32;20177;-55
2022/04/17 07:01:27;;;;;;;3.10;1.20;;;8.60;99.90;;;;;;7310131;32;20296;-54
2022/04/17 07:05:49;;;;;;;3.70;1.62;;;8.70;99.90;;;;;;7311258;32;20194;-60
2022/04/17 07:10:11;;;;;;;3.30;1.20;;;9.00;99.90;;;;;;7301883;32;20712;-61
2022/04/17 07:14:33;;;;;;;2.80;1.05;;;9.10;99.90;;;;;;7303411;32;20431;-58
2022/04/17 07:18:55;;;;;;;2.53;1.30;;;9.40;99.90;;;;;;7298163;32;20218;-59
2022/04/17 07:23:18;;;;;;;3.42;1.35;;;9.80;99.90;;;;;;7295476;32;20174;-59
2022/04/17 07:27:45;;;;;;;2.70;1.25;;;10.20;99.90;;;;;;7296588;32;20194;-60
2022/04/17 07:31:48;;;;;;;2.45;1.23;;;10.80;99.80;;;;;;7299311;32;37391;-62
2022/04/17 07:35:50;;;;;;;5.37;1.40;;;10.90;96.20;;;;;;7312660;32;20479;-60
2022/04/17 07:39:52;;;;;;;3.53;1.52;;;11.10;95.60;;;;;;7314702;32;20154;-59
2022/04/17 07:43:53;;;;;;;2.17;0.85;;;11.40;97.60;;;;;;7315817;32;20112;-60
2022/04/17 07:47:56;;;;;;;2.40;1.40;;;11.80;93.50;;;;;;7312135;32;20362;-60
2022/04/17 07:51:57;;;;;;;2.72;1.40;;;12.00;94.70;;;;;;7318715;32;20134;-60
2022/04/17 07:55:59;;;;;;;4.20;1.10;;;12.10;92.50;;;;;;7314728;32;20112;-59
2022/04/17 08:00:02;;;;;;;2.45;1.17;;;12.30;91.70;;;;;;7314521;32;20166;-60
2022/04/17 08:04:04;;;;;;;2.60;1.25;;;12.20;90.10;;;;;;7311121;32;20284;-59
2022/04/17 08:08:08;;;;;;;4.03;1.62;;;12.60;90.20;;;;;;7317385;32;20127;-60
2022/04/17 08:12:10;;;;;;;2.12;1.17;;;12.80;90.40;;;;;;7319919;32;20472;-60
2022/04/17 08:16:11;;;;;;;2.67;1.30;;;13.10;87.70;;;;;;7319227;32;20107;-59
2022/04/17 08:20:15;;;;;;;2.45;1.17;;;13.30;82.30;;;;;;7321610;32;20117;-60
2022/04/17 08:24:18;;;;;;;5.65;1.10;;;13.40;75.50;;;;;;7320635;32;20149;-60
2022/04/17 08:28:19;;;;;;;2.25;1.15;;;13.50;77.70;;;;;;7323135;32;20198;-60
2022/04/17 08:32:21;;;;;;;2.60;1.40;;;13.80;77.40;;;;;;7313392;32;20126;-60
2022/04/17 08:36:23;;;;;;;2.72;1.20;;;13.70;74.90;;;;;;7322671;32;20507;-59
2022/04/17 08:40:26;;;;;;;3.65;1.25;;;13.90;73.40;;;;;;7319105;32;20198;-61
2022/04/17 08:44:28;;;;;;;2.17;1.08;;;14.60;75.90;;;;;;7319867;32;20170;-60
2022/04/17 08:48:32;;;;;;;4.18;1.33;;;14.90;71.30;;;;;;7321818;32;20426;-60
2022/04/17 08:52:34;;;;;;;1.92;1.30;;;15.50;71.50;;;;;;7318431;32;20692;-61
2022/04/17 08:56:36;;;;;;;1.27;0.95;;;15.90;70.40;;;;;;7315478;32;20806;-61
2022/04/17 09:00:38;;;;;;;2.78;1.10;;;17.00;66.30;;;;;;7322335;32;20383;-62
2022/04/17 09:04:43;;;;;;;3.17;1.30;;;17.30;62.50;;;;;;7314254;32;20194;-55
2022/04/17 09:09:05;;;;;;;3.08;1.10;;;18.00;59.20;;;;;;7306939;32;20132;-60
2022/04/17 09:13:06;;;;;;;5.10;1.12;;;18.40;56.20;;;;;;7316559;32;20158;-62
2022/04/17 09:17:10;;;;;;;3.33;1.10;;;18.50;56.30;;;;;;7314678;32;20198;-63
2022/04/17 09:21:32;;;;;;;2.72;1.05;;;17.10;55.30;;;;;;7322047;32;20177;-63
2022/04/17 09:25:36;;;;;;;2.00;0.82;;;17.60;56.70;;;;;;7314813;32;20249;-63
2022/04/17 09:29:39;;;;;;;2.22;1.10;;;16.80;57.20;;;;;;7307495;32;20261;-62
2022/04/17 09:33:42;;;;;;;2.65;1.10;;;16.50;60.70;;;;;;7301055;32;20210;-62
2022/04/17 09:37:44;;;;;;;2.42;0.90;;;17.60;57.60;;;;;;7321640;32;20141;-61
2022/04/17 09:41:56;;;;;;;3.53;1.10;;;18.90;54.30;;;;;;7317114;32;20122;-63
2022/04/17 09:46:05;;;;;;;2.60;1.02;;;20.20;50.10;;;;;;7317826;32;20104;-61
2022/04/17 09:50:08;;;;;;;2.65;1.02;;;21.20;46.40;;;;;;7312963;32;20466;-62
2022/04/17 09:54:14;;;;;;;3.05;1.00;;;21.70;47.30;;;;;;7320789;32;20217;-61
2022/04/17 09:58:21;;;;;;;1.20;1.00;;;22.20;47.10;;;;;;7315883;32;20183;-62
2022/04/17 10:02:27;;;;;;;2.83;1.00;;;22.70;47.60;;;;;;7313904;32;20103;-61
2022/04/17 10:06:29;;;;;;;1.83;1.00;;;22.60;44.60;;;;;;7314711;32;20214;-61
2022/04/17 10:10:31;;;;;;;1.70;1.00;;;23.10;45.60;;;;;;7318061;32;20111;-60
2022/04/17 10:14:36;;;;;;;1.75;0.98;;;23.60;41.40;;;;;;7318556;32;21517;-61
2022/04/17 10:18:39;;;;;;;5.97;1.08;;;23.70;40.30;;;;;;7314587;32;20860;-61
2022/04/17 10:22:43;;;;;;;1.50;0.90;;;23.70;41.70;;;;;;7311939;32;20096;-62
2022/04/17 10:26:46;;;;;;;2.42;0.88;;;23.80;41.20;;;;;;7317352;32;22445;-61
2022/04/17 10:31:10;;;;;;;1.23;1.00;;;24.00;39.80;;;;;;7313578;32;20134;-62
2022/04/17 10:35:27;;;;;;;1.30;0.90;;;22.00;44.60;;;;;;7318036;32;20219;-62
2022/04/17 10:39:40;;;;;;;1.90;0.97;;;22.30;41.60;;;;;;7304869;32;21639;-60
2022/04/17 10:43:42;;;;;;;3.65;1.12;;;20.30;43.80;;;;;;7313914;32;21083;-60
2022/04/17 10:48:10;;;;;;;5.78;1.15;;;19.30;47.90;;;;;;7303479;32;20179;-61
2022/04/17 10:52:27;;;;;;;2.00;1.05;;;20.00;48.90;;;;;;7302424;32;20206;-60
2022/04/17 10:56:29;;;;;;;1.47;0.93;;;18.90;45.90;;;;;;7311042;32;20911;-62
2022/04/17 11:00:38;;;;;;;3.80;1.08;;;19.10;45.10;;;;;;7308239;32;20119;-62
2022/04/17 11:04:55;;;;;;;1.73;1.00;;;19.30;47.80;;;;;;7321509;32;20104;-62
2022/04/17 11:09:10;;;;;;;3.67;0.88;;;19.30;45.10;;;;;;7313446;32;20448;-61
2022/04/17 11:13:12;;;;;;;2.22;0.90;;;19.30;47.00;;;;;;7319082;32;20213;-61
2022/04/17 11:17:14;;;;;;;0.85;0.60;;;18.30;44.80;;;;;;7315030;32;20191;-62
2022/04/17 11:21:16;;;;;;;2.50;0.82;;;18.90;45.90;;;;;;7319211;32;20198;-60
2022/04/17 11:25:17;;;;;;;1.12;0.70;;;19.00;43.90;;;;;;7319029;32;20115;-61
2022/04/17 11:29:33;;;;;;;2.62;0.70;;;18.60;44.80;;;;;;7315211;32;20721;-61
2022/04/17 11:33:35;;;;;;;3.33;0.90;;;17.80;46.60;;;;;;7307891;32;20158;-60
2022/04/17 11:37:37;;;;;;;1.40;0.70;;;17.50;45.00;;;;;;7314275;32;20493;-66
2022/04/17 11:41:39;;;;;;;1.55;0.60;;;17.70;49.10;;;;;;7316768;32;20263;-60
2022/04/17 11:45:43;;;;;;;2.17;0.75;;;18.40;46.70;;;;;;7309400;32;20099;-58
2022/04/17 11:49:46;;;;;;;1.62;0.70;;;18.30;48.20;;;;;;7313445;32;20123;-58
2022/04/17 11:53:48;;;;;;;1.37;0.75;;;18.50;48.30;;;;;;7307939;32;20538;-59
2022/04/17 11:57:49;;;;;;;3.90;0.77;;;18.80;47.70;;;;;;7302548;32;20603;-59
2022/04/17 12:02:12;;;;;;;2.03;0.70;;;18.90;46.70;;;;;;7303115;32;20170;-58
2022/04/17 12:06:15;;;;;;;1.37;0.80;;;18.60;44.40;;;;;;7297902;32;20375;-58
2022/04/17 12:10:22;;;;;;;1.20;0.60;;;18.70;45.00;;;;;;7308770;32;20194;-58
2022/04/17 12:14:31;;;;;;;91.70;68.07;;;19.20;44.80;;;;;;7316772;32;20108;-62
2022/04/17 12:18:33;;;;;;;314.38;215.55;;;20.00;46.20;;;;;;7314275;32;20134;-61
2022/04/17 12:22:39;;;;;;;2.45;1.52;;;20.40;45.60;;;;;;7313062;32;20110;-62
2022/04/17 12:26:41;;;;;;;1.08;0.80;;;20.20;44.60;;;;;;7316148;32;20226;-61
2022/04/17 12:30:43;;;;;;;1.20;0.80;;;20.20;46.10;;;;;;7317116;32;20124;-61
2022/04/17 12:34:45;;;;;;;1.50;0.75;;;19.80;44.10;;;;;;7315700;32;20805;-61
2022/04/17 12:38:55;;;;;;;3.15;0.80;;;20.00;46.60;;;;;;7314574;32;20122;-60
2022/04/17 12:43:19;;;;;;;3.10;0.70;;;20.10;44.20;;;;;;7314373;32;20527;-62
2022/04/17 12:47:21;;;;;;;1.00;0.60;;;19.90;46.30;;;;;;7313905;32;20253;-60
2022/04/17 12:51:25;;;;;;;1.67;0.75;;;19.90;44.00;;;;;;7316102;32;20254;-62
2022/04/17 12:55:32;;;;;;;0.90;0.60;;;19.80;44.50;;;;;;7318425;32;20130;-62
2022/04/17 12:59:41;;;;;;;1.48;0.70;;;19.70;45.50;;;;;;7316997;32;20099;-61
2022/04/17 13:03:43;;;;;;;2.28;0.73;;;19.30;44.20;;;;;;7318731;32;20202;-66
2022/04/17 13:07:45;;;;;;;2.75;0.55;;;19.40;44.70;;;;;;7317280;32;20098;-59
2022/04/17 13:11:47;;;;;;;2.62;0.70;;;19.10;42.00;;;;;;7321614;32;20099;-59
2022/04/17 13:15:50;;;;;;;1.42;0.80;;;19.20;44.60;;;;;;7311910;32;20146;-58
2022/04/17 13:19:52;;;;;;;2.58;0.70;;;18.70;44.00;;;;;;7319184;32;20118;-59
2022/04/17 13:23:53;;;;;;;1.25;0.75;;;18.90;42.90;;;;;;7316505;32;20107;-59
2022/04/17 13:27:55;;;;;;;3.25;2.00;;;19.60;45.70;;;;;;7317108;32;20118;-60
2022/04/17 13:31:57;;;;;;;1.37;0.62;;;19.90;42.80;;;;;;7318078;32;20111;-60
2022/04/17 13:35:58;;;;;;;1.75;0.70;;;19.40;41.50;;;;;;7316100;32;20508;-60
2022/04/17 13:40:00;;;;;;;2.20;0.50;;;19.70;44.70;;;;;;7310348;32;20249;-59
2022/04/17 13:44:02;;;;;;;2.55;0.65;;;20.00;44.60;;;;;;7318417;32;20129;-61
2022/04/17 13:48:06;;;;;;;3.62;0.90;;;19.60;42.00;;;;;;7315592;32;20557;-60
2022/04/17 13:52:08;;;;;;;2.05;0.60;;;20.10;44.70;;;;;;7319930;32;20104;-61
2022/04/17 13:56:10;;;;;;;0.57;0.40;;;20.20;42.10;;;;;;7319645;32;20104;-61
2022/04/17 14:00:15;;;;;;;1.85;0.65;;;19.90;42.70;;;;;;7314364;32;20483;-60
2022/04/17 14:04:16;;;;;;;0.98;0.62;;;20.10;43.20;;;;;;7319834;32;20103;-60
2022/04/17 14:08:18;;;;;;;2.08;0.40;;;19.90;41.90;;;;;;7314658;32;20103;-62
2022/04/17 14:12:20;;;;;;;1.25;0.60;;;19.80;40.60;;;;;;7314544;32;20953;-59
2022/04/17 14:16:22;;;;;;;1.40;0.60;;;19.30;38.90;;;;;;7314569;32;20250;-60
2022/04/17 14:20:23;;;;;;;1.37;0.50;;;19.40;41.90;;;;;;7325410;32;20103;-60
2022/04/17 14:24:25;;;;;;;1.80;0.43;;;19.80;41.40;;;;;;7321524;32;22068;-60
2022/04/17 14:28:27;;;;;;;4.40;0.95;;;20.20;41.80;;;;;;7318538;32;20099;-59
2022/04/17 14:32:29;;;;;;;1.12;0.73;;;20.50;41.20;;;;;;7324028;32;20238;-59
2022/04/17 14:36:30;;;;;;;1.20;0.60;;;20.40;40.30;;;;;;7317689;32;20241;-59
2022/04/17 14:40:32;;;;;;;1.00;0.50;;;20.50;41.70;;;;;;7318955;32;20198;-57
2022/04/17 14:44:34;;;;;;;1.62;0.70;;;20.70;41.20;;;;;;7315408;32;20103;-58
2022/04/17 14:48:37;;;;;;;0.80;0.40;;;20.60;42.60;;;;;;7316876;32;20175;-59
2022/04/17 14:52:39;;;;;;;1.42;0.60;;;20.70;43.10;;;;;;7314402;32;20122;-59
2022/04/17 14:56:41;;;;;;;1.50;0.50;;;20.60;40.80;;;;;;7317925;32;20233;-58
2022/04/17 15:00:44;;;;;;;2.03;0.62;;;20.30;40.90;;;;;;7318440;32;20298;-59
2022/04/17 15:04:46;;;;;;;1.02;0.62;;;19.50;41.40;;;;;;7315585;32;20104;-59
2022/04/17 15:08:48;;;;;;;1.65;0.47;;;19.50;42.20;;;;;;7302680;32;20215;-59
2022/04/17 15:12:49;;;;;;;1.58;0.50;;;19.70;42.50;;;;;;7306180;32;20210;-59
2022/04/17 15:16:53;;;;;;;1.12;0.50;;;19.70;42.70;;;;;;7303957;32;20242;-59
2022/04/17 15:20:55;;;;;;;2.45;0.60;;;19.40;41.70;;;;;;7304012;32;20190;-59
2022/04/17 15:24:56;;;;;;;1.08;0.50;;;19.10;43.60;;;;;;7302444;32;20190;-59
2022/04/17 15:28:58;;;;;;;1.52;0.50;;;19.10;43.50;;;;;;7302727;32;20314;-59
2022/04/17 15:33:00;;;;;;;1.23;0.62;;;19.10;43.20;;;;;;7302754;32;20203;-59
2022/04/17 15:37:02;;;;;;;0.95;0.75;;;18.80;43.80;;;;;;7304101;32;20644;-58
2022/04/17 15:41:04;;;;;;;0.85;0.50;;;18.90;44.60;;;;;;7305804;32;20487;-59
2022/04/17 15:49:28;;;;;;;3.53;0.90;;;19.20;42.30;;;;;;7301885;32;20201;-58
2022/04/17 15:53:29;;;;;;;1.25;0.60;;;19.00;43.10;;;;;;7306747;32;20213;-59
2022/04/17 15:57:31;;;;;;;1.33;0.47;;;18.50;42.10;;;;;;7306235;32;20242;-58
2022/04/17 16:01:34;;;;;;;2.33;0.50;;;18.60;42.30;;;;;;7302517;32;20230;-59
2022/04/17 16:05:36;;;;;;;1.92;0.60;;;18.40;42.70;;;;;;7297457;32;20267;-58
2022/04/17 16:09:40;;;;;;;1.50;0.60;;;18.50;42.10;;;;;;7300672;32;41401;-58
2022/04/17 16:13:42;;;;;;;1.83;0.57;;;18.60;43.50;;;;;;7310250;32;20301;-60
2022/04/17 16:17:44;;;;;;;4.03;0.80;;;18.40;44.00;;;;;;7315021;32;20199;-59
2022/04/17 16:21:46;;;;;;;1.75;0.60;;;18.40;44.80;;;;;;7316241;32;20129;-60
2022/04/17 16:25:48;;;;;;;2.22;0.60;;;18.40;43.30;;;;;;7314961;32;20205;-61
2022/04/17 16:29:49;;;;;;;1.27;0.82;;;18.40;44.20;;;;;;7306362;32;20226;-61
2022/04/17 16:33:51;;;;;;;1.50;0.68;;;18.30;45.80;;;;;;7308008;32;20190;-62
2022/04/17 16:37:53;;;;;;;1.73;0.60;;;18.20;46.00;;;;;;7306168;32;20322;-61
2022/04/17 16:41:55;;;;;;;1.17;0.50;;;18.20;42.90;;;;;;7310356;32;20205;-60
2022/04/17 16:45:56;;;;;;;2.17;1.20;;;18.00;43.10;;;;;;7306289;32;20614;-61
2022/04/17 16:49:58;;;;;;;3.12;1.10;;;17.80;45.30;;;;;;7308449;32;20329;-60
2022/04/17 16:54:00;;;;;;;3.83;1.23;;;17.60;47.00;;;;;;7308026;32;20688;-60
2022/04/17 17:02:26;;;;;;;1.70;0.90;;;17.40;47.30;;;;;;7304502;32;20216;-60
2022/04/17 17:06:28;;;;;;;3.65;1.15;;;17.30;46.60;;;;;;7314212;32;20251;-62
2022/04/17 17:10:30;;;;;;;1.65;1.00;;;17.10;47.70;;;;;;7315143;32;20183;-61
2022/04/17 17:14:32;;;;;;;2.28;1.02;;;17.00;47.70;;;;;;7306725;32;20277;-60
2022/04/17 17:18:34;;;;;;;5.40;1.12;;;16.90;49.10;;;;;;7311505;32;20254;-63
2022/04/17 17:22:35;;;;;;;2.28;0.98;;;17.00;46.80;;;;;;7308082;32;20126;-60
2022/04/17 17:26:39;;;;;;;3.03;1.08;;;16.90;46.60;;;;;;7318205;32;20418;-61
2022/04/17 17:30:40;;;;;;;2.42;1.00;;;16.70;47.30;;;;;;7319467;32;20107;-61
2022/04/17 17:34:42;;;;;;;3.75;1.12;;;16.60;48.20;;;;;;7321913;32;20206;-62
2022/04/17 17:38:44;;;;;;;2.30;1.00;;;16.60;46.90;;;;;;7320709;32;20144;-62
2022/04/17 17:42:46;;;;;;;3.72;1.08;;;16.40;47.60;;;;;;7311936;32;20557;-61
2022/04/17 17:51:51;;;;;;;1.52;0.82;;;16.30;47.40;;;;;;7297735;32;20107;-60
2022/04/17 17:55:53;;;;;;;2.17;0.85;;;16.10;47.70;;;;;;7322138;32;20108;-60
2022/04/17 17:59:55;;;;;;;1.83;1.10;;;16.00;48.50;;;;;;7322777;32;20510;-62
2022/04/17 18:03:57;;;;;;;1.77;0.85;;;15.90;47.90;;;;;;7320785;32;20212;-62
2022/04/17 18:16:46;;;;;;;3.53;1.10;;;15.40;50.00;;;;;;7323751;32;20124;-61
2022/04/17 18:20:49;;;;;;;2.47;1.10;;;15.10;51.10;;;;;;7320032;32;20133;-61
2022/04/17 18:24:51;;;;;;;3.55;1.25;;;15.00;51.40;;;;;;7326189;32;20111;-60
2022/04/17 18:28:52;;;;;;;3.55;1.05;;;14.80;51.70;;;;;;7310319;32;20301;-61
2022/04/17 18:32:54;;;;;;;4.10;1.40;;;14.70;53.10;;;;;;7314573;32;20587;-63
2022/04/17 18:36:56;;;;;;;6.37;1.10;;;14.40;53.90;;;;;;7321444;32;20142;-60
2022/04/17 18:40:58;;;;;;;6.12;1.30;;;14.20;55.50;;;;;;7315363;32;20130;-60
2022/04/17 18:45:00;;;;;;;3.67;1.50;;;13.90;59.00;;;;;;7322950;32;20130;-60
2022/04/17 18:49:02;;;;;;;3.85;1.98;;;13.60;62.90;;;;;;7307633;32;20215;-60
2022/04/17 18:53:07;;;;;;;4.72;2.05;;;13.20;70.30;;;;;;7309406;32;20103;-59
2022/04/17 18:57:09;;;;;;;5.37;1.65;;;12.80;76.70;;;;;;7306400;32;21092;-59
2022/04/17 19:01:11;;;;;;;3.08;1.10;;;12.60;83.40;;;;;;7310240;32;20234;-59
2022/04/17 19:05:15;;;;;;;10.20;1.23;;;12.30;83.60;;;;;;7314394;32;20199;-59
2022/04/17 19:09:16;;;;;;;4.28;1.30;;;12.00;88.60;;;;;;7317772;32;20135;-60
2022/04/17 19:17:38;;;;;;;9.88;3.97;;;11.60;98.40;;;;;;7318151;32;20153;-59
2022/04/17 19:21:45;;;;;;;5.30;1.55;;;11.20;99.90;;;;;;7317659;32;20149;-59
2022/04/17 19:25:47;;;;;;;7.78;1.58;;;10.90;99.90;;;;;;7314627;32;20111;-59
2022/04/17 19:29:49;;;;;;;4.35;1.45;;;10.70;99.90;;;;;;7315653;32;20142;-61
2022/04/17 19:38:11;;;;;;;4.00;1.23;;;10.20;99.90;;;;;;7321866;32;20149;-60
2022/04/17 19:42:12;;;;;;;5.00;1.60;;;10.10;99.90;;;;;;7319839;32;20611;-62
2022/04/17 19:46:14;;;;;;;4.62;1.37;;;9.90;99.90;;;;;;7321875;32;20161;-60
2022/04/17 19:50:16;;;;;;;3.80;1.48;;;9.70;99.90;;;;;;7311289;32;20168;-60
2022/04/17 19:54:18;;;;;;;4.87;1.40;;;9.50;99.90;;;;;;7320344;32;20543;-60
2022/04/17 19:58:20;;;;;;;3.50;1.23;;;9.40;99.90;;;;;;7325549;32;20141;-61
2022/04/17 20:02:21;;;;;;;3.97;1.80;;;9.30;99.90;;;;;;7316565;32;20137;-60
2022/04/17 20:06:24;;;;;;;4.22;1.90;;;9.10;99.90;;;;;;7313400;32;20215;-60
2022/04/17 20:10:26;;;;;;;4.37;1.90;;;9.00;99.90;;;;;;7326367;32;20496;-60
2022/04/17 20:14:28;;;;;;;4.72;1.95;;;8.80;99.90;;;;;;7323615;32;20138;-62
2022/04/17 20:18:30;;;;;;;6.10;1.85;;;8.60;99.90;;;;;;7327620;32;20106;-60
2022/04/17 20:22:31;;;;;;;5.55;1.77;;;8.50;99.90;;;;;;7324472;32;20111;-61
2022/04/17 20:26:33;;;;;;;4.22;1.80;;;8.30;99.90;;;;;;7325616;32;20745;-61
2022/04/17 20:30:35;;;;;;;3.37;1.48;;;8.20;99.90;;;;;;7322288;32;20567;-61
2022/04/17 20:34:36;;;;;;;3.85;1.87;;;8.10;99.90;;;;;;7315738;32;20606;-62
2022/04/17 20:38:38;;;;;;;3.95;2.10;;;8.00;99.90;;;;;;7310865;32;20111;-62
2022/04/17 20:42:40;;;;;;;2.83;1.62;;;7.80;99.90;;;;;;7318122;32;20215;-61
2022/04/17 20:51:02;;;;;;;4.60;2.10;;;7.60;99.90;;;;;;7320428;32;20108;-62
2022/04/17 20:55:06;;;;;;;5.62;1.77;;;7.60;99.90;;;;;;7312200;32;20221;-61
2022/04/17 20:59:08;;;;;;;7.53;2.10;;;7.40;99.90;;;;;;7316219;32;20464;-62
2022/04/17 21:03:23;;;;;;;6.62;2.35;;;7.30;99.90;;;;;;7312349;32;20138;-59
2022/04/17 21:07:25;;;;;;;6.32;2.10;;;7.20;99.90;;;;;;7306380;32;20201;-61
2022/04/17 21:11:28;;;;;;;7.80;2.15;;;7.00;99.90;;;;;;7306561;32;20212;-61
2022/04/17 21:15:29;;;;;;;6.12;2.22;;;7.00;99.90;;;;;;7314245;32;20253;-61
2022/04/17 21:19:37;;;;;;;7.18;2.37;;;6.90;99.90;;;;;;7295411;32;20206;-61
2022/04/17 21:23:39;;;;;;;4.80;1.87;;;6.80;99.90;;;;;;7311518;32;20722;-59
2022/04/17 21:27:41;;;;;;;6.00;2.08;;;6.70;99.90;;;;;;7317310;32;20134;-60
2022/04/17 21:31:51;;;;;;;4.28;2.10;;;6.60;99.90;;;;;;7325511;32;20104;-60
2022/04/17 21:35:53;;;;;;;4.35;2.00;;;6.50;99.90;;;;;;7319222;32;20369;-60
2022/04/17 21:39:55;;;;;;;6.12;2.40;;;6.40;99.90;;;;;;7321872;32;20283;-60
2022/04/17 21:43:57;;;;;;;4.95;2.58;;;6.40;99.90;;;;;;7324381;32;20134;-62
2022/04/17 21:47:59;;;;;;;8.98;2.15;;;6.40;99.90;;;;;;7321933;32;20130;-62
2022/04/17 21:52:01;;;;;;;4.95;2.30;;;6.30;99.90;;;;;;7322543;32;20415;-60
2022/04/17 21:56:03;;;;;;;4.35;2.22;;;6.30;99.90;;;;;;7331965;32;20111;-61
2022/04/17 22:04:28;;;;;;;5.57;2.15;;;6.30;99.90;;;;;;7313056;32;20551;-61
2022/04/17 22:08:34;;;;;;;4.07;1.90;;;6.20;99.90;;;;;;7323018;32;20127;-61